Time;durP1;ratioP1;P1;durP2;ratioP2;P2;SDS_P1;SDS_P2;PMS_P1;PMS_P2;Temp;Humidity;BMP_temperature;BMP_pressure;BME280_temperature;BME280_humidity;BME280_pressure;Samples;Min_cycle;Max_cycle;Signal;HPM_P1;HPM_P2
2020/12/15 00:00:18;;;;;;;7.05;4.53;;;8.80;97.10;;;;;;4862057;29;20407;-80
2020/12/15 00:02:44;;;;;;;6.72;4.97;;;8.80;97.00;;;;;;4833386;29;20049;-80
2020/12/15 00:05:10;;;;;;;8.40;5.32;;;8.80;97.00;;;;;;4862245;29;20060;-80
2020/12/15 00:07:37;;;;;;;10.77;5.80;;;8.80;96.90;;;;;;4866377;29;20051;-79
2020/12/15 00:10:04;;;;;;;7.65;4.82;;;8.80;96.90;;;;;;4896222;29;20339;-80
2020/12/15 00:12:30;;;;;;;8.63;4.80;;;8.70;96.80;;;;;;4871215;29;20045;-80
2020/12/15 00:14:57;;;;;;;7.05;4.78;;;8.70;96.90;;;;;;4896613;29;20424;-80
2020/12/15 00:17:23;;;;;;;8.07;4.97;;;8.70;96.80;;;;;;4886622;29;20059;-80
2020/12/15 00:19:50;;;;;;;7.40;5.80;;;8.70;96.80;;;;;;4886363;29;20048;-80
2020/12/15 00:22:16;;;;;;;8.98;5.10;;;8.70;96.80;;;;;;4877571;29;20400;-80
2020/12/15 00:24:44;;;;;;;9.43;4.55;;;8.70;96.70;;;;;;4863317;29;20511;-80
2020/12/15 00:27:11;;;;;;;6.45;4.47;;;8.70;96.80;;;;;;4869506;29;20056;-80
2020/12/15 00:29:38;;;;;;;8.52;4.32;;;8.70;96.80;;;;;;4896928;29;20055;-80
2020/12/15 00:32:04;;;;;;;6.22;4.60;;;8.70;96.80;;;;;;4883938;29;20044;-80
2020/12/15 00:34:31;;;;;;;10.18;5.63;;;8.70;96.80;;;;;;4872918;29;20061;-80
2020/12/15 00:36:58;;;;;;;6.82;4.45;;;8.70;96.80;;;;;;4874661;29;20047;-80
2020/12/15 00:39:25;;;;;;;6.30;4.00;;;8.70;96.70;;;;;;4897788;29;20039;-80
2020/12/15 00:41:51;;;;;;;6.80;3.78;;;8.70;96.70;;;;;;4888889;29;20044;-80
2020/12/15 00:44:18;;;;;;;5.03;3.42;;;8.70;96.70;;;;;;4873124;29;20043;-80
2020/12/15 00:46:50;;;;;;;5.57;4.47;;;8.70;96.70;;;;;;4862653;29;20032;-80
2020/12/15 00:49:17;;;;;;;8.63;4.90;;;8.70;96.70;;;;;;4892348;29;20053;-80
2020/12/15 00:51:47;;;;;;;8.07;5.20;;;8.70;96.90;;;;;;4859143;29;20415;-80
2020/12/15 00:54:15;;;;;;;5.18;3.65;;;8.70;96.70;;;;;;4876565;29;20063;-80
2020/12/15 00:56:42;;;;;;;7.45;4.13;;;8.70;96.70;;;;;;4848884;29;20419;-80
2020/12/15 00:59:10;;;;;;;5.55;3.67;;;8.70;96.70;;;;;;4881509;29;20052;-80
2020/12/15 01:01:37;;;;;;;6.00;4.18;;;8.70;96.70;;;;;;4848471;29;20048;-80
2020/12/15 01:04:03;;;;;;;5.95;4.38;;;8.70;96.70;;;;;;4876288;29;20041;-80
2020/12/15 01:06:30;;;;;;;6.25;4.20;;;8.70;96.70;;;;;;4900632;29;20044;-80
2020/12/15 01:08:58;;;;;;;6.53;4.10;;;8.70;96.70;;;;;;4875722;29;20408;-80
2020/12/15 01:11:29;;;;;;;5.32;3.80;;;8.70;96.70;;;;;;4847468;29;20074;-80
2020/12/15 01:13:57;;;;;;;7.53;4.53;;;8.70;96.70;;;;;;4880562;29;20052;-80
2020/12/15 01:16:25;;;;;;;9.27;5.07;;;8.70;96.70;;;;;;4856017;29;20052;-80
2020/12/15 01:18:54;;;;;;;7.22;4.68;;;8.70;96.70;;;;;;4868543;29;20055;-80
2020/12/15 01:21:29;;;;;;;7.07;4.40;;;8.70;96.70;;;;;;4873192;29;20072;-80
2020/12/15 01:23:58;;;;;;;7.65;5.15;;;8.70;96.70;;;;;;4883752;29;20476;-80
2020/12/15 01:26:26;;;;;;;7.38;4.55;;;8.70;97.00;;;;;;4881951;29;20489;-80
2020/12/15 01:28:53;;;;;;;6.28;4.68;;;8.70;96.70;;;;;;4870680;29;20047;-81
2020/12/15 01:31:25;;;;;;;9.35;4.97;;;8.70;96.70;;;;;;4870332;29;20040;-80
2020/12/15 01:34:00;;;;;;;5.28;3.92;;;8.70;96.70;;;;;;4882309;29;20051;-80
2020/12/15 01:36:40;;;;;;;7.10;5.07;;;8.70;96.70;;;;;;4845105;29;20355;-80
2020/12/15 01:39:09;;;;;;;7.55;4.88;;;8.60;96.70;;;;;;4884919;29;20587;-80
2020/12/15 01:41:50;;;;;;;7.55;5.03;;;8.60;96.70;;;;;;4888480;29;20052;-80
2020/12/15 01:44:17;;;;;;;7.57;5.30;;;8.60;96.70;;;;;;4890318;29;20040;-80
2020/12/15 01:46:47;;;;;;;6.15;4.88;;;8.60;96.70;;;;;;4880210;29;20049;-80
2020/12/15 01:49:17;;;;;;;9.50;5.63;;;8.60;96.80;;;;;;4842166;29;20048;-79
2020/12/15 01:51:51;;;;;;;9.57;6.10;;;8.60;96.80;;;;;;4888451;29;20051;-79
2020/12/15 01:54:21;;;;;;;7.72;4.97;;;8.60;96.80;;;;;;4847809;29;20052;-82
2020/12/15 01:56:51;;;;;;;9.70;4.85;;;8.60;96.80;;;;;;4863280;29;20431;-79
2020/12/15 01:59:24;;;;;;;7.32;4.78;;;8.60;96.80;;;;;;4864743;29;20056;-80
2020/12/15 02:01:54;;;;;;;6.85;4.85;;;8.60;96.80;;;;;;4851974;29;20044;-80
2020/12/15 02:04:37;;;;;;;9.90;6.28;;;8.60;96.80;;;;;;4864473;29;20484;-80
2020/12/15 02:07:07;;;;;;;11.38;6.32;;;8.60;96.80;;;;;;4872113;29;20514;-80
2020/12/15 02:09:35;;;;;;;8.15;5.63;;;8.60;96.80;;;;;;4875405;29;20049;-80
2020/12/15 02:12:14;;;;;;;8.82;6.10;;;8.60;96.80;;;;;;4847782;29;20066;-79
2020/12/15 02:14:44;;;;;;;8.48;5.43;;;8.60;96.90;;;;;;4847979;29;20045;-80
2020/12/15 02:17:14;;;;;;;7.18;5.07;;;8.60;96.90;;;;;;4869560;29;20074;-80
2020/12/15 02:20:11;;;;;;;9.23;6.10;;;8.60;96.90;;;;;;4879054;29;20056;-80
2020/12/15 02:22:58;;;;;;;9.25;5.10;;;8.60;96.90;;;;;;4872698;29;20032;-80
2020/12/15 02:25:26;;;;;;;8.15;6.00;;;8.60;96.90;;;;;;4874871;29;20044;-80
2020/12/15 02:27:53;;;;;;;8.48;6.20;;;8.70;96.90;;;;;;4882883;29;20041;-82
2020/12/15 02:30:20;;;;;;;10.25;5.97;;;8.70;96.90;;;;;;4858357;29;20056;-82
2020/12/15 02:32:49;;;;;;;11.20;5.80;;;8.70;96.90;;;;;;4863608;29;20040;-80
2020/12/15 02:35:19;;;;;;;9.00;5.22;;;8.70;96.90;;;;;;4862717;29;20048;-80
2020/12/15 02:37:46;;;;;;;8.57;5.80;;;8.70;97.00;;;;;;4860062;29;20048;-80
2020/12/15 02:40:16;;;;;;;9.75;7.13;;;8.70;97.00;;;;;;4871887;29;20052;-80
2020/12/15 02:43:03;;;;;;;6.78;5.72;;;8.70;97.00;;;;;;4840981;29;20044;-80
2020/12/15 02:45:29;;;;;;;9.70;5.10;;;8.70;97.00;;;;;;4884610;29;20395;-80
2020/12/15 02:47:59;;;;;;;8.13;4.25;;;8.70;97.00;;;;;;4877582;29;20033;-80
2020/12/15 02:50:31;;;;;;;8.88;4.57;;;8.70;97.00;;;;;;4851023;29;20064;-82
2020/12/15 02:53:15;;;;;;;8.55;5.10;;;8.70;97.10;;;;;;4879218;29;20253;-82
2020/12/15 02:55:43;;;;;;;6.90;5.03;;;8.70;97.10;;;;;;4875277;29;20048;-82
2020/12/15 02:58:16;;;;;;;9.65;5.90;;;8.70;97.10;;;;;;4877701;29;20645;-82
2020/12/15 03:00:46;;;;;;;7.18;5.88;;;8.70;97.10;;;;;;4871854;29;20057;-82
2020/12/15 03:03:13;;;;;;;8.82;5.63;;;8.80;97.10;;;;;;4883691;29;20071;-82
2020/12/15 03:05:51;;;;;;;8.50;6.53;;;8.80;97.10;;;;;;4871910;29;20044;-82
2020/12/15 03:08:18;;;;;;;9.40;5.65;;;8.80;97.10;;;;;;4863431;29;20122;-82
2020/12/15 03:10:45;;;;;;;9.02;5.95;;;8.80;97.10;;;;;;4875919;29;20416;-82
2020/12/15 03:13:12;;;;;;;8.15;5.93;;;8.80;97.10;;;;;;4879306;29;20491;-81
2020/12/15 03:15:38;;;;;;;8.25;6.03;;;8.80;97.10;;;;;;4852227;29;20339;-81
2020/12/15 03:18:08;;;;;;;10.18;6.75;;;8.80;97.10;;;;;;4847713;29;20047;-81
2020/12/15 03:20:35;;;;;;;11.70;6.82;;;8.80;97.10;;;;;;4859566;29;20063;-82
2020/12/15 03:23:02;;;;;;;12.45;7.80;;;8.80;97.10;;;;;;4862887;29;20060;-81
2020/12/15 03:25:36;;;;;;;10.00;5.95;;;8.80;97.10;;;;;;4862263;29;20045;-81
2020/12/15 03:28:06;;;;;;;8.60;5.95;;;8.80;97.20;;;;;;4851960;29;20033;-82
2020/12/15 03:30:38;;;;;;;11.07;7.55;;;8.80;97.20;;;;;;4861348;29;20064;-81
2020/12/15 03:33:05;;;;;;;8.43;5.30;;;8.80;97.20;;;;;;4870093;29;20041;-82
2020/12/15 03:35:32;;;;;;;14.02;6.32;;;8.80;97.20;;;;;;4877557;29;20063;-82
2020/12/15 03:38:03;;;;;;;9.38;6.22;;;8.80;97.20;;;;;;4886961;29;20060;-82
2020/12/15 03:40:41;;;;;;;9.98;6.13;;;8.80;97.50;;;;;;4878656;29;20044;-82
2020/12/15 03:43:25;;;;;;;11.15;5.20;;;8.80;97.30;;;;;;4889454;29;20040;-82
2020/12/15 03:46:28;;;;;;;7.30;4.43;;;8.80;97.30;;;;;;4869069;29;20052;-82
2020/12/15 03:48:59;;;;;;;8.13;4.15;;;8.80;97.50;;;;;;4879279;29;20058;-82
2020/12/15 03:51:28;;;;;;;9.35;5.78;;;8.80;97.30;;;;;;4874028;29;20028;-82
2020/12/15 03:54:24;;;;;;;7.78;5.93;;;8.80;97.30;;;;;;4862606;29;20432;-82
2020/12/15 03:57:11;;;;;;;8.45;5.88;;;8.90;97.30;;;;;;4868054;29;20056;-82
2020/12/15 03:59:49;;;;;;;9.35;5.75;;;8.90;97.30;;;;;;4886379;29;20052;-82
2020/12/15 04:02:16;;;;;;;8.07;6.15;;;8.90;97.30;;;;;;4878431;29;20534;-82
2020/12/15 04:04:42;;;;;;;6.57;5.30;;;8.90;97.30;;;;;;4846174;29;20047;-82
2020/12/15 04:07:10;;;;;;;6.45;4.68;;;8.90;97.30;;;;;;4861198;29;20032;-82
2020/12/15 04:09:41;;;;;;;9.13;5.32;;;8.90;97.30;;;;;;4855030;29;20052;-82
2020/12/15 04:12:08;;;;;;;7.40;4.32;;;8.90;97.30;;;;;;4859311;29;20043;-82
2020/12/15 04:14:35;;;;;;;9.07;4.95;;;9.00;97.40;;;;;;4847390;29;20040;-82
2020/12/15 04:17:04;;;;;;;7.03;4.10;;;8.90;97.30;;;;;;4875087;29;20048;-82
2020/12/15 04:19:30;;;;;;;4.63;2.72;;;9.00;97.30;;;;;;4876361;29;20044;-83
2020/12/15 04:21:57;;;;;;;6.90;4.80;;;9.00;97.30;;;;;;4860503;29;20396;-82
2020/12/15 04:24:34;;;;;;;8.30;5.30;;;9.00;97.30;;;;;;4853589;29;20037;-82
2020/12/15 04:27:04;;;;;;;8.75;5.68;;;9.00;97.30;;;;;;4860446;29;20044;-82
2020/12/15 04:29:34;;;;;;;9.05;6.13;;;9.00;97.30;;;;;;4878302;29;20053;-82
2020/12/15 04:32:10;;;;;;;7.50;3.97;;;9.00;97.30;;;;;;4885472;29;20063;-82
2020/12/15 04:34:51;;;;;;;6.18;4.85;;;9.10;97.30;;;;;;4881978;29;20385;-82
2020/12/15 04:37:18;;;;;;;6.63;4.45;;;9.00;97.30;;;;;;4860993;29;20512;-82
2020/12/15 04:39:54;;;;;;;8.80;5.68;;;9.00;97.30;;;;;;4866266;29;20369;-82
2020/12/15 04:42:23;;;;;;;7.78;4.50;;;9.00;97.30;;;;;;4876112;29;20484;-82
2020/12/15 04:44:51;;;;;;;7.40;5.00;;;9.00;97.50;;;;;;4861356;29;20044;-82
2020/12/15 04:47:31;;;;;;;;;;;9.00;97.30;;;;;;4897153;29;20048;-82
2020/12/15 04:50:07;;;;;;;9.20;5.50;;;9.00;97.30;;;;;;4880474;29;19919;-82
2020/12/15 04:52:58;;;;;;;7.00;4.68;;;9.00;97.30;;;;;;4890571;29;20048;-82
2020/12/15 04:55:49;;;;;;;5.68;4.63;;;9.10;97.30;;;;;;4873099;29;20056;-82
2020/12/15 04:58:20;;;;;;;8.75;4.38;;;9.00;97.30;;;;;;4882846;29;20048;-82
2020/12/15 05:00:50;;;;;;;10.85;5.70;;;9.00;97.20;;;;;;4866049;29;20040;-82
2020/12/15 05:03:38;;;;;;;5.75;4.50;;;9.00;97.20;;;;;;4879710;29;20036;-82
2020/12/15 05:06:12;;;;;;;4.93;3.58;;;9.00;97.20;;;;;;4881189;29;20052;-81
2020/12/15 05:08:46;;;;;;;8.65;5.38;;;9.00;97.30;;;;;;4879936;29;20040;-82
2020/12/15 05:11:13;;;;;;;5.57;4.45;;;9.00;97.30;;;;;;4872863;29;20049;-82
2020/12/15 05:13:54;;;;;;;7.85;4.88;;;9.00;97.30;;;;;;4866471;29;20040;-82
2020/12/15 05:16:21;;;;;;;6.18;3.80;;;9.00;97.20;;;;;;4851469;29;20067;-82
2020/12/15 05:19:05;;;;;;;9.23;4.70;;;9.10;97.30;;;;;;4891029;29;20067;-82
2020/12/15 05:21:52;;;;;;;8.43;5.78;;;9.10;97.30;;;;;;4866701;29;20048;-82
2020/12/15 05:24:21;;;;;;;7.18;4.88;;;9.10;97.30;;;;;;4890378;29;20463;-82
2020/12/15 05:26:51;;;;;;;9.90;5.10;;;9.10;97.20;;;;;;4876008;29;20052;-82
2020/12/15 05:29:20;;;;;;;7.80;4.60;;;9.10;97.20;;;;;;4891004;29;20492;-82
2020/12/15 05:32:07;;;;;;;7.50;4.75;;;9.10;97.20;;;;;;4894222;29;20039;-82
2020/12/15 05:34:52;;;;;;;8.52;5.30;;;9.10;97.20;;;;;;4859370;29;20392;-82
2020/12/15 05:37:45;;;;;;;6.28;4.32;;;9.10;97.20;;;;;;4826117;29;20056;-82
2020/12/15 05:40:28;;;;;;;12.35;7.80;;;9.10;97.20;;;;;;4887272;29;20044;-82
2020/12/15 05:43:25;;;;;;;10.63;6.85;;;9.10;97.20;;;;;;4891291;29;20396;-82
2020/12/15 05:45:53;;;;;;;10.15;6.35;;;9.10;97.20;;;;;;4877988;29;20024;-82
2020/12/15 05:48:26;;;;;;;12.30;6.80;;;9.00;97.20;;;;;;4890336;29;20404;-81
2020/12/15 05:50:59;;;;;;;9.75;7.15;;;9.00;97.20;;;;;;4879428;29;20060;-82
2020/12/15 05:53:25;;;;;;;10.18;6.38;;;9.00;97.20;;;;;;4891063;29;20079;-82
2020/12/15 05:55:52;;;;;;;8.93;5.68;;;9.00;97.10;;;;;;4875423;29;20044;-82
2020/12/15 05:58:19;;;;;;;8.90;5.45;;;9.00;97.20;;;;;;4850667;29;20407;-82
2020/12/15 06:00:46;;;;;;;8.48;6.47;;;9.00;97.20;;;;;;4861841;29;20071;-81
2020/12/15 06:03:12;;;;;;;9.10;5.60;;;9.00;97.20;;;;;;4890012;29;20056;-81
2020/12/15 06:05:39;;;;;;;8.25;5.85;;;9.00;97.20;;;;;;4849303;29;20036;-82
2020/12/15 06:08:06;;;;;;;9.02;6.68;;;9.00;97.20;;;;;;4849417;29;20048;-81
2020/12/15 06:10:34;;;;;;;9.80;6.43;;;9.00;97.20;;;;;;4879727;29;20045;-82
2020/12/15 06:13:02;;;;;;;7.07;5.25;;;9.00;97.20;;;;;;4892187;29;20044;-82
2020/12/15 06:15:29;;;;;;;10.73;5.57;;;9.00;97.20;;;;;;4879995;29;20138;-82
2020/12/15 06:18:01;;;;;;;9.60;6.50;;;9.00;97.20;;;;;;4884124;29;20040;-81
2020/12/15 06:20:36;;;;;;;11.98;6.68;;;9.00;97.20;;;;;;4876293;29;20044;-79
2020/12/15 06:23:06;;;;;;;10.10;6.85;;;9.00;97.10;;;;;;4877903;29;20032;-81
2020/12/15 06:25:35;;;;;;;9.45;6.40;;;9.00;97.10;;;;;;4880125;29;20047;-82
2020/12/15 06:28:11;;;;;;;6.97;5.22;;;9.00;97.10;;;;;;4891759;29;20040;-82
2020/12/15 06:30:39;;;;;;;10.07;6.60;;;9.00;97.20;;;;;;4894167;29;20071;-82
2020/12/15 06:33:08;;;;;;;8.98;5.60;;;9.00;97.20;;;;;;4880370;29;20044;-82
2020/12/15 06:35:35;;;;;;;8.25;5.75;;;9.00;97.20;;;;;;4865757;29;20041;-81
2020/12/15 06:38:07;;;;;;;12.00;6.95;;;9.00;97.20;;;;;;4863583;29;20040;-81
2020/12/15 06:40:41;;;;;;;9.32;6.15;;;9.00;97.20;;;;;;4885085;29;20048;-82
2020/12/15 06:43:07;;;;;;;9.90;5.88;;;9.00;97.20;;;;;;4887340;29;20477;-81
2020/12/15 06:45:34;;;;;;;11.00;6.70;;;9.00;97.20;;;;;;4891625;29;20040;-81
2020/12/15 06:48:04;;;;;;;7.43;5.65;;;9.00;97.20;;;;;;4869396;29;20381;-83
2020/12/15 06:50:45;;;;;;;10.15;6.80;;;9.00;97.20;;;;;;4871378;29;20040;-86
2020/12/15 06:53:15;;;;;;;8.95;6.40;;;9.00;97.20;;;;;;4870725;29;20393;-82
2020/12/15 06:55:43;;;;;;;8.93;6.07;;;9.00;97.20;;;;;;4884748;29;20396;-85
2020/12/15 06:58:10;;;;;;;11.45;6.22;;;9.00;97.20;;;;;;4889079;29;20052;-81
2020/12/15 07:00:39;;;;;;;8.00;5.35;;;9.00;97.20;;;;;;4886567;29;20044;-81
2020/12/15 07:03:17;;;;;;;7.72;5.07;;;9.00;97.20;;;;;;4903086;29;20047;-82
2020/12/15 07:05:44;;;;;;;19.88;12.63;;;9.00;97.20;;;;;;4898380;29;20055;-82
2020/12/15 07:08:12;;;;;;;13.45;8.32;;;9.00;97.20;;;;;;4901386;29;20403;-82
2020/12/15 07:10:43;;;;;;;11.82;8.75;;;9.00;97.20;;;;;;4882439;29;20416;-82
2020/12/15 07:13:12;;;;;;;10.57;7.78;;;9.10;97.20;;;;;;4897339;29;20059;-87
2020/12/15 07:15:39;;;;;;;18.00;8.75;;;9.10;97.20;;;;;;4881269;29;20137;-82
2020/12/15 07:18:06;;;;;;;15.48;9.18;;;9.10;97.20;;;;;;4874889;29;20504;-82
2020/12/15 07:20:33;;;;;;;19.02;12.55;;;9.10;97.20;;;;;;4871220;29;20088;-79
2020/12/15 07:22:59;;;;;;;13.85;9.07;;;9.10;97.20;;;;;;4835918;29;20074;-82
2020/12/15 07:25:26;;;;;;;13.77;7.55;;;9.10;97.20;;;;;;4866037;29;20048;-82
2020/12/15 07:27:52;;;;;;;10.10;6.03;;;9.10;97.20;;;;;;4889818;29;20511;-79
2020/12/15 07:30:21;;;;;;;12.27;6.40;;;9.10;97.20;;;;;;4849296;29;20508;-82
2020/12/15 07:32:48;;;;;;;9.30;5.63;;;9.10;97.20;;;;;;4870412;29;20075;-80
2020/12/15 07:35:23;;;;;;;10.13;5.30;;;9.20;97.20;;;;;;4871627;29;20052;-84
2020/12/15 07:37:51;;;;;;;9.23;5.57;;;9.10;97.20;;;;;;4894487;29;20055;-80
2020/12/15 07:40:18;;;;;;;9.57;5.32;;;9.20;97.30;;;;;;4877229;29;20044;-80
2020/12/15 07:42:58;;;;;;;9.38;5.22;;;9.10;97.20;;;;;;4895486;29;20038;-80
2020/12/15 07:45:26;;;;;;;12.55;7.18;;;9.20;97.20;;;;;;4890313;29;20040;-80
2020/12/15 07:47:54;;;;;;;11.63;5.97;;;9.20;97.20;;;;;;4888635;29;20033;-82
2020/12/15 07:50:30;;;;;;;9.93;5.10;;;9.20;97.20;;;;;;4858418;29;20114;-81
2020/12/15 07:53:07;;;;;;;13.57;7.68;;;9.20;97.30;;;;;;4893305;29;20400;-78
2020/12/15 07:55:33;;;;;;;11.32;7.35;;;9.20;97.20;;;;;;4860499;29;20045;-81
2020/12/15 07:58:03;;;;;;;13.40;7.18;;;9.20;97.20;;;;;;4873630;29;20044;-81
2020/12/15 08:00:30;;;;;;;11.80;7.55;;;9.20;97.20;;;;;;4874274;29;20392;-79
2020/12/15 08:03:02;;;;;;;13.15;9.00;;;9.20;97.20;;;;;;4875515;29;20040;-80
2020/12/15 08:05:29;;;;;;;9.18;7.15;;;9.20;97.10;;;;;;4863008;29;20040;-82
2020/12/15 08:07:57;;;;;;;16.00;8.45;;;9.20;97.10;;;;;;4870641;29;20055;-83
2020/12/15 08:10:34;;;;;;;10.70;6.50;;;9.20;97.10;;;;;;4879396;29;20028;-83
2020/12/15 08:13:04;;;;;;;10.52;6.93;;;9.10;97.10;;;;;;4855620;29;20056;-81
2020/12/15 08:15:37;;;;;;;9.25;6.45;;;9.10;97.20;;;;;;4877355;29;20053;-83
2020/12/15 08:18:06;;;;;;;8.05;5.43;;;9.10;97.20;;;;;;4852756;29;20040;-81
2020/12/15 08:20:35;;;;;;;8.35;5.90;;;9.20;97.30;;;;;;4860205;29;20047;-80
2020/12/15 08:23:11;;;;;;;5.97;4.53;;;9.20;97.20;;;;;;4872965;29;20037;-79
2020/12/15 08:25:43;;;;;;;9.27;6.72;;;9.20;97.20;;;;;;4864354;29;20037;-79
2020/12/15 08:28:23;;;;;;;10.50;7.13;;;9.30;97.20;;;;;;4847580;29;20060;-77
2020/12/15 08:30:56;;;;;;;12.32;6.53;;;9.30;97.30;;;;;;4880289;29;20485;-81
2020/12/15 08:33:23;;;;;;;9.63;6.45;;;9.30;97.20;;;;;;4883218;29;20037;-80
2020/12/15 08:35:51;;;;;;;7.07;4.95;;;9.30;97.20;;;;;;4882267;29;20045;-79
2020/12/15 08:38:19;;;;;;;8.00;5.68;;;9.40;97.30;;;;;;4854981;29;20476;-80
2020/12/15 08:40:52;;;;;;;13.65;7.72;;;9.40;97.20;;;;;;4881696;29;20057;-79
2020/12/15 08:43:19;;;;;;;10.00;6.65;;;9.40;97.20;;;;;;4856818;29;20033;-79
2020/12/15 08:45:45;;;;;;;11.70;6.72;;;9.40;97.20;;;;;;4888819;29;20060;-80
2020/12/15 08:48:17;;;;;;;9.27;6.80;;;9.40;97.20;;;;;;4851916;29;20041;-80
2020/12/15 08:50:44;;;;;;;9.18;7.07;;;9.40;97.20;;;;;;4870788;29;20045;-80
2020/12/15 08:53:12;;;;;;;8.00;5.85;;;9.40;97.20;;;;;;4852372;29;20634;-80
2020/12/15 08:55:39;;;;;;;8.85;6.00;;;9.40;97.20;;;;;;4864301;29;20395;-80
2020/12/15 08:58:09;;;;;;;11.32;7.50;;;9.40;97.20;;;;;;4865579;29;20571;-80
2020/12/15 09:00:39;;;;;;;9.27;6.63;;;9.40;97.20;;;;;;4898233;29;20043;-80
2020/12/15 09:03:16;;;;;;;7.70;6.75;;;9.50;97.20;;;;;;4898594;29;20583;-80
2020/12/15 09:06:02;;;;;;;8.18;5.47;;;9.50;97.20;;;;;;4868156;29;20809;-80
2020/12/15 09:08:29;;;;;;;10.43;6.35;;;9.50;97.20;;;;;;4879759;29;20044;-80
2020/12/15 09:10:57;;;;;;;8.68;6.68;;;9.50;97.20;;;;;;4884676;29;20512;-80
2020/12/15 09:13:25;;;;;;;12.32;8.18;;;9.50;97.20;;;;;;4900378;29;20042;-80
2020/12/15 09:15:54;;;;;;;9.30;6.75;;;9.50;97.20;;;;;;4873960;29;20051;-80
2020/12/15 09:18:34;;;;;;;10.38;7.40;;;9.50;97.20;;;;;;4897328;29;20498;-81
2020/12/15 09:21:18;;;;;;;16.02;8.90;;;9.50;97.20;;;;;;4892747;29;20081;-78
2020/12/15 09:23:48;;;;;;;9.38;6.53;;;9.50;97.20;;;;;;4884207;29;20413;-80
2020/12/15 09:26:16;;;;;;;11.88;8.88;;;9.50;97.20;;;;;;4896867;29;20040;-80
2020/12/15 09:28:42;;;;;;;11.02;8.88;;;9.60;97.20;;;;;;4895916;29;20037;-80
2020/12/15 09:31:17;;;;;;;10.93;8.05;;;9.60;97.20;;;;;;4880864;29;20063;-80
2020/12/15 09:33:44;;;;;;;9.35;7.38;;;9.60;97.20;;;;;;4865117;29;20056;-82
2020/12/15 09:36:17;;;;;;;8.98;8.05;;;9.60;97.20;;;;;;4893555;29;20045;-80
2020/12/15 09:38:46;;;;;;;10.40;8.57;;;9.60;97.20;;;;;;4883802;29;20048;-79
2020/12/15 09:41:13;;;;;;;10.02;7.72;;;9.70;97.20;;;;;;4866447;29;20056;-79
2020/12/15 09:43:39;;;;;;;11.07;7.63;;;9.70;97.30;;;;;;4862323;29;20039;-79
2020/12/15 09:46:05;;;;;;;11.48;8.90;;;9.70;97.20;;;;;;4884139;29;20491;-79
2020/12/15 09:48:32;;;;;;;16.90;10.68;;;9.80;97.20;;;;;;4873692;29;20040;-79
2020/12/15 09:51:00;;;;;;;13.13;9.52;;;9.80;97.20;;;;;;4863976;29;20036;-79
2020/12/15 09:53:30;;;;;;;9.50;7.68;;;9.80;97.20;;;;;;4897419;29;20396;-78
2020/12/15 09:55:57;;;;;;;11.32;8.57;;;9.80;97.20;;;;;;4875564;29;20045;-79
2020/12/15 09:58:23;;;;;;;10.02;8.18;;;9.80;97.20;;;;;;4864353;29;20057;-79
2020/12/15 10:00:50;;;;;;;9.68;8.00;;;9.90;97.20;;;;;;4897634;29;20522;-79
2020/12/15 10:03:16;;;;;;;13.77;9.13;;;9.90;97.20;;;;;;4849478;29;20429;-79
2020/12/15 10:05:43;;;;;;;10.75;8.93;;;9.90;97.20;;;;;;4901705;29;20519;-79
2020/12/15 10:08:09;;;;;;;10.48;7.53;;;10.00;97.20;;;;;;4885883;29;20047;-79
2020/12/15 10:10:36;;;;;;;10.30;8.75;;;10.00;97.20;;;;;;4894934;29;20052;-79
2020/12/15 10:13:02;;;;;;;11.93;8.48;;;10.00;97.20;;;;;;4881429;29;20041;-79
2020/12/15 10:15:29;;;;;;;11.38;8.32;;;10.00;97.20;;;;;;4914028;29;20036;-79
2020/12/15 10:17:56;;;;;;;13.63;9.95;;;10.00;97.20;;;;;;4880765;29;20049;-79
2020/12/15 10:20:23;;;;;;;14.82;9.85;;;10.00;97.30;;;;;;4874416;29;20055;-79
2020/12/15 10:22:49;;;;;;;13.77;10.40;;;10.00;97.20;;;;;;4866720;29;20049;-79
2020/12/15 10:25:16;;;;;;;12.45;10.20;;;10.00;97.20;;;;;;4886432;29;20048;-79
2020/12/15 10:27:42;;;;;;;12.20;9.50;;;10.10;97.20;;;;;;4866617;29;20040;-80
2020/12/15 10:30:09;;;;;;;12.05;9.05;;;10.10;97.20;;;;;;4863866;29;20060;-79
2020/12/15 10:32:35;;;;;;;8.45;7.25;;;10.10;97.20;;;;;;4866825;29;20053;-79
2020/12/15 10:35:02;;;;;;;13.10;8.88;;;10.10;97.20;;;;;;4894166;29;20049;-79
2020/12/15 10:37:29;;;;;;;11.35;9.40;;;10.10;97.20;;;;;;4865525;29;20182;-79
2020/12/15 10:39:55;;;;;;;9.18;7.78;;;10.10;97.20;;;;;;4894399;29;20044;-79
2020/12/15 10:42:22;;;;;;;11.60;8.05;;;10.10;97.20;;;;;;4868445;29;20400;-79
2020/12/15 10:44:48;;;;;;;10.50;8.30;;;10.20;97.30;;;;;;4888791;29;20047;-79
2020/12/15 10:47:15;;;;;;;12.50;10.20;;;10.20;97.30;;;;;;4878970;29;20048;-79
2020/12/15 10:49:41;;;;;;;11.52;9.18;;;10.20;97.20;;;;;;4867834;29;20400;-79
2020/12/15 10:52:08;;;;;;;11.15;9.10;;;10.20;97.20;;;;;;4871606;29;20054;-79
2020/12/15 10:54:34;;;;;;;13.23;10.77;;;10.20;97.20;;;;;;4878924;29;20056;-79
2020/12/15 10:57:01;;;;;;;15.48;10.75;;;10.20;97.20;;;;;;4892384;29;20046;-79
2020/12/15 10:59:27;;;;;;;11.05;9.68;;;10.20;97.20;;;;;;4881911;29;20048;-79
2020/12/15 11:01:53;;;;;;;14.60;10.95;;;10.20;97.20;;;;;;4887573;29;20090;-81
2020/12/15 11:04:20;;;;;;;17.45;13.52;;;10.20;97.20;;;;;;4868087;29;20048;-80
2020/12/15 11:06:47;;;;;;;13.77;10.27;;;10.20;97.20;;;;;;4887390;29;20051;-80
2020/12/15 11:09:15;;;;;;;15.32;12.77;;;10.20;97.20;;;;;;4837825;29;20507;-76
2020/12/15 11:11:46;;;;;;;14.98;12.73;;;10.20;97.20;;;;;;4878768;29;20055;-76
2020/12/15 11:14:14;;;;;;;13.98;11.15;;;10.20;97.20;;;;;;4878542;29;20040;-77
2020/12/15 11:16:40;;;;;;;12.45;9.95;;;10.20;97.20;;;;;;4878893;29;20048;-77
2020/12/15 11:19:07;;;;;;;17.33;13.88;;;10.20;97.20;;;;;;4877159;29;20045;-77
2020/12/15 11:21:34;;;;;;;11.77;10.55;;;10.20;97.20;;;;;;4868565;29;20321;-77
2020/12/15 11:24:00;;;;;;;14.40;11.60;;;10.30;97.20;;;;;;4873512;29;20035;-77
2020/12/15 11:26:26;;;;;;;11.77;9.68;;;10.30;97.20;;;;;;4891633;29;20032;-77
2020/12/15 11:28:53;;;;;;;15.68;11.95;;;10.20;97.20;;;;;;4871615;29;20037;-76
2020/12/15 11:31:20;;;;;;;13.23;10.38;;;10.30;97.20;;;;;;4892669;29;20043;-77
2020/12/15 11:33:46;;;;;;;14.60;11.95;;;10.30;97.20;;;;;;4847356;29;20040;-77
2020/12/15 11:36:15;;;;;;;15.73;13.27;;;10.30;97.30;;;;;;4875058;29;20059;-77
2020/12/15 11:38:44;;;;;;;20.08;14.05;;;10.30;97.20;;;;;;4860452;29;20041;-77
2020/12/15 11:41:12;;;;;;;16.67;12.88;;;10.30;97.20;;;;;;4847330;29;20100;-77
2020/12/15 11:43:38;;;;;;;15.77;13.70;;;10.40;97.20;;;;;;4879097;29;20399;-77
2020/12/15 11:46:05;;;;;;;12.80;10.63;;;10.40;97.20;;;;;;4890363;29;20044;-77
2020/12/15 11:48:31;;;;;;;15.43;12.45;;;10.30;97.20;;;;;;4882489;29;20043;-77
2020/12/15 11:50:58;;;;;;;15.43;12.30;;;10.40;97.30;;;;;;4877288;29;20382;-77
2020/12/15 11:53:24;;;;;;;14.77;12.02;;;10.40;97.20;;;;;;4850314;29;20036;-77
2020/12/15 11:55:51;;;;;;;12.98;10.85;;;10.40;97.20;;;;;;4871260;29;20037;-76
2020/12/15 11:58:17;;;;;;;13.27;11.13;;;10.40;97.20;;;;;;4883851;29;20052;-76
2020/12/15 12:00:45;;;;;;;16.95;12.02;;;10.40;97.20;;;;;;4883380;29;20480;-76
2020/12/15 12:03:11;;;;;;;11.93;10.02;;;10.40;97.20;;;;;;4885872;29;20056;-76
2020/12/15 12:05:38;;;;;;;12.40;10.05;;;10.40;97.20;;;;;;4869081;29;20451;-76
2020/12/15 12:08:04;;;;;;;14.63;10.32;;;10.40;97.30;;;;;;4846712;29;20050;-76
2020/12/15 12:10:31;;;;;;;13.43;10.88;;;10.40;97.20;;;;;;4881841;29;20040;-76
2020/12/15 12:12:57;;;;;;;12.60;9.60;;;10.50;97.20;;;;;;4867348;29;20047;-76
2020/12/15 12:15:25;;;;;;;14.45;10.55;;;10.40;97.20;;;;;;4865759;29;20048;-78
2020/12/15 12:17:51;;;;;;;16.30;11.90;;;10.40;97.20;;;;;;4857595;29;20048;-76
2020/12/15 12:20:18;;;;;;;15.27;11.48;;;10.40;97.20;;;;;;4894705;29;20053;-76
2020/12/15 12:22:44;;;;;;;15.57;11.55;;;10.50;97.20;;;;;;4846484;29;20505;-76
2020/12/15 12:25:11;;;;;;;13.32;10.15;;;10.50;97.20;;;;;;4874054;29;20045;-76
2020/12/15 12:27:38;;;;;;;18.20;14.38;;;10.40;97.50;;;;;;4883121;29;20436;-76
2020/12/15 12:30:05;;;;;;;14.60;10.95;;;10.50;97.30;;;;;;4875833;29;20048;-76
2020/12/15 12:32:31;;;;;;;14.73;10.25;;;10.50;97.30;;;;;;4867157;29;20047;-76
2020/12/15 12:34:58;;;;;;;12.95;11.15;;;10.40;97.20;;;;;;4871629;29;20044;-75
2020/12/15 12:37:25;;;;;;;13.55;11.30;;;10.50;97.20;;;;;;4889099;29;20047;-76
2020/12/15 12:39:51;;;;;;;17.83;12.90;;;10.40;97.20;;;;;;4866395;29;20052;-76
2020/12/15 12:42:18;;;;;;;18.48;15.27;;;10.50;97.30;;;;;;4868565;29;20051;-76
2020/12/15 12:44:44;;;;;;;15.88;13.15;;;10.40;97.20;;;;;;4868043;29;20060;-76
2020/12/15 12:47:10;;;;;;;18.27;14.95;;;10.50;97.30;;;;;;4890046;29;20061;-76
2020/12/15 12:49:37;;;;;;;19.67;15.50;;;10.40;97.20;;;;;;4884426;29;20126;-76
2020/12/15 12:52:03;;;;;;;17.05;13.23;;;10.40;97.30;;;;;;4865214;29;20045;-76
2020/12/15 12:54:30;;;;;;;15.98;13.10;;;10.40;97.30;;;;;;4852866;29;20036;-76
2020/12/15 12:56:56;;;;;;;17.38;13.13;;;10.40;97.20;;;;;;4887801;29;20083;-75
2020/12/15 12:59:23;;;;;;;24.83;18.00;;;10.40;97.20;;;;;;4869536;29;20060;-77
2020/12/15 13:01:49;;;;;;;18.23;12.43;;;10.40;97.30;;;;;;4850322;29;20065;-76